createdAt,value
2018-10-06T00:00:35.896Z,7.60
2018-10-06T00:01:35.817Z,7.20
2018-10-06T00:02:35.707Z,8.00
2018-10-06T00:03:35.611Z,7.90
2018-10-06T00:04:35.522Z,7.80
2018-10-06T00:05:35.427Z,7.80
2018-10-06T00:06:35.341Z,7.50
2018-10-06T00:07:35.232Z,7.50
2018-10-06T00:08:35.138Z,7.60
2018-10-06T00:09:35.041Z,7.60
2018-10-06T00:10:34.955Z,8.00
2018-10-06T00:11:34.865Z,7.90
2018-10-06T00:12:34.754Z,7.90
2018-10-06T00:13:34.657Z,7.80
2018-10-06T00:14:34.669Z,8.00
2018-10-06T00:15:34.469Z,7.60
2018-10-06T00:16:34.390Z,7.80
2018-10-06T00:17:34.275Z,7.70
2018-10-06T00:18:34.182Z,7.90
2018-10-06T00:19:34.086Z,7.50
2018-10-06T00:20:33.992Z,7.60
2018-10-06T00:21:34.016Z,7.80
2018-10-06T00:22:33.799Z,7.60
2018-10-06T00:23:33.710Z,7.50
2018-10-06T00:24:33.613Z,8.00
2018-10-06T00:25:33.515Z,7.60
2018-10-06T00:26:33.436Z,7.50
2018-10-06T00:27:33.322Z,7.90
2018-10-06T00:28:33.334Z,7.40
2018-10-06T00:29:33.133Z,8.40
2018-10-06T00:30:33.039Z,8.30
2018-10-06T00:31:32.962Z,8.00
2018-10-06T00:32:32.846Z,7.90
2018-10-06T00:33:32.755Z,7.70
2018-10-06T00:34:32.656Z,8.00
2018-10-06T00:35:32.679Z,7.80
2018-10-06T00:36:32.482Z,7.90
2018-10-06T00:37:32.367Z,8.10
2018-10-06T00:38:32.273Z,7.90
2018-10-06T00:39:32.180Z,7.60
2018-10-06T00:40:32.082Z,7.80
2018-10-06T00:41:32.119Z,7.40
2018-10-06T00:42:31.895Z,8.40
2018-10-06T00:43:31.798Z,7.70
2018-10-06T00:44:31.701Z,7.70
2018-10-06T00:45:31.611Z,7.90
2018-10-06T00:46:31.530Z,7.90
2018-10-06T00:47:31.416Z,8.00
2018-10-06T00:48:31.319Z,8.20
2018-10-06T00:49:31.225Z,7.70
2018-10-06T00:50:31.129Z,7.80
2018-10-06T00:51:31.051Z,8.10
2018-10-06T00:52:30.937Z,8.40
2018-10-06T00:53:30.842Z,8.10
2018-10-06T00:54:30.757Z,8.30
2018-10-06T00:55:30.654Z,7.80
2018-10-06T00:56:30.575Z,8.10
2018-10-06T00:57:30.464Z,7.90
2018-10-06T00:58:30.365Z,8.00
2018-10-06T00:59:30.268Z,8.20
2018-10-06T01:00:30.173Z,8.10
2018-10-06T01:01:30.093Z,8.60
2018-10-06T01:02:29.985Z,8.20
2018-10-06T01:03:29.887Z,8.30
2018-10-06T01:04:29.790Z,8.20
2018-10-06T01:05:29.692Z,8.20
2018-10-06T01:06:29.616Z,7.90
2018-10-06T01:07:29.503Z,7.90
2018-10-06T01:08:29.414Z,8.00
2018-10-06T01:09:29.310Z,8.00
2018-10-06T01:10:29.216Z,8.20
2018-10-06T01:11:29.136Z,7.90
2018-10-06T01:12:29.025Z,8.20
2018-10-06T01:13:28.946Z,8.70
2018-10-06T01:14:28.834Z,8.20
2018-10-06T01:15:28.741Z,8.00
2018-10-06T01:16:28.647Z,7.90
2018-10-06T01:17:28.668Z,8.20
2018-10-06T01:18:28.448Z,8.20
2018-10-06T01:19:28.354Z,8.10
2018-10-06T01:20:28.262Z,8.40
2018-10-06T01:21:28.164Z,8.20
2018-10-06T01:22:28.084Z,7.80
2018-10-06T01:23:28.087Z,7.80
2018-10-06T01:24:27.877Z,7.90
2018-10-06T01:25:27.780Z,8.00
2018-10-06T01:26:27.687Z,8.40
2018-10-06T01:27:27.604Z,8.60
2018-10-06T01:28:27.489Z,8.90
2018-10-06T01:29:27.402Z,8.00
2018-10-06T01:30:27.407Z,8.70
2018-10-06T01:31:27.207Z,8.50
2018-10-06T01:32:27.129Z,8.10
2018-10-06T01:33:27.012Z,8.50
2018-10-06T01:34:26.916Z,8.50
2018-10-06T01:35:26.823Z,8.70
2018-10-06T01:36:26.726Z,9.30
2018-10-06T01:37:26.752Z,8.40
2018-10-06T01:38:26.535Z,8.60
2018-10-06T01:39:26.437Z,8.60
2018-10-06T01:40:26.340Z,8.70
2018-10-06T01:41:26.249Z,8.90
2018-10-06T01:42:26.167Z,9.00
2018-10-06T01:43:26.054Z,8.50
2018-10-06T01:44:26.076Z,9.20
2018-10-06T01:45:25.863Z,8.60
2018-10-06T01:46:25.767Z,9.40
2018-10-06T01:47:25.687Z,8.90
2018-10-06T01:48:25.574Z,8.60
2018-10-06T01:49:25.484Z,8.90
2018-10-06T01:50:25.384Z,9.00
2018-10-06T01:51:25.401Z,9.00
2018-10-06T01:52:25.215Z,9.30
2018-10-06T01:53:25.096Z,9.60
2018-10-06T01:54:25.000Z,8.90
2018-10-06T01:55:24.904Z,9.00
2018-10-06T01:56:24.808Z,9.90
2018-10-06T01:57:24.730Z,9.50
2018-10-06T01:58:24.723Z,9.00
2018-10-06T01:59:24.519Z,9.40
2018-10-06T02:00:24.423Z,9.10
2018-10-06T02:01:24.330Z,9.60
2018-10-06T02:02:24.247Z,9.60
2018-10-06T02:03:24.139Z,9.10
2018-10-06T02:04:24.051Z,10.20
2018-10-06T02:05:23.944Z,9.70
2018-10-06T02:06:23.848Z,9.80
2018-10-06T02:07:23.770Z,9.20
2018-10-06T02:08:23.657Z,9.70
2018-10-06T02:09:23.564Z,9.90
2018-10-06T02:10:23.463Z,9.60
2018-10-06T02:11:23.373Z,9.60
2018-10-06T02:12:23.290Z,10.40
2018-10-06T02:13:23.177Z,10.20
2018-10-06T02:14:23.083Z,9.40
2018-10-06T02:15:22.982Z,9.90
2018-10-06T02:16:22.892Z,10.30
2018-10-06T02:17:22.812Z,10.40
2018-10-06T02:18:22.699Z,10.30
2018-10-06T02:19:22.606Z,9.70
2018-10-06T02:20:22.505Z,10.00
2018-10-06T02:21:22.413Z,10.20
2018-10-06T02:22:22.326Z,10.50
2018-10-06T02:23:22.216Z,10.30
2018-10-06T02:24:22.120Z,10.00
2018-10-06T02:25:22.026Z,10.20
2018-10-06T02:26:21.930Z,10.60
2018-10-06T02:27:21.853Z,10.30
2018-10-06T02:28:21.734Z,10.70
2018-10-06T02:29:21.642Z,10.60
2018-10-06T02:30:21.549Z,10.60
2018-10-06T02:31:21.449Z,9.90
2018-10-06T02:32:21.370Z,10.10
2018-10-06T02:33:21.262Z,11.30
2018-10-06T02:34:21.167Z,10.60
2018-10-06T02:35:21.064Z,10.70
2018-10-06T02:36:20.969Z,10.50
2018-10-06T02:37:20.895Z,10.30
2018-10-06T02:38:20.783Z,10.50
2018-10-06T02:39:20.685Z,10.60
2018-10-06T02:40:20.584Z,10.50
2018-10-06T02:41:20.492Z,10.70
2018-10-06T02:42:20.410Z,11.50
2018-10-06T02:43:20.299Z,11.00
2018-10-06T02:44:20.216Z,10.20
2018-10-06T02:45:20.111Z,12.00
2018-10-06T02:46:20.016Z,11.40
2018-10-06T02:47:19.929Z,11.00
2018-10-06T02:48:19.818Z,11.60
2018-10-06T02:49:19.721Z,11.20
2018-10-06T02:50:19.625Z,11.00
2018-10-06T02:51:19.532Z,11.60
2018-10-06T02:52:19.448Z,11.40
2018-10-06T02:53:19.337Z,10.80
2018-10-06T02:54:19.241Z,10.80
2018-10-06T02:55:19.147Z,10.80
2018-10-06T02:56:19.049Z,11.30
2018-10-06T02:57:18.970Z,11.10
2018-10-06T02:58:18.858Z,11.90
2018-10-06T02:59:18.759Z,11.50
2018-10-06T03:00:18.668Z,12.00
2018-10-06T03:01:18.569Z,11.80
2018-10-06T03:02:18.475Z,11.30
2018-10-06T03:03:18.390Z,11.80
2018-10-06T03:04:18.280Z,11.90
2018-10-06T03:05:18.181Z,11.90
2018-10-06T03:06:18.089Z,11.50
2018-10-06T03:07:18.013Z,11.90
2018-10-06T03:08:17.895Z,12.00
2018-10-06T03:09:17.799Z,12.00
2018-10-06T03:10:17.704Z,12.00
2018-10-06T03:11:17.604Z,12.30
2018-10-06T03:12:17.509Z,12.10
2018-10-06T03:13:17.451Z,12.00
2018-10-06T03:14:17.318Z,12.00
2018-10-06T03:15:17.224Z,11.80
2018-10-06T03:16:17.122Z,11.70
2018-10-06T03:17:17.034Z,11.60
2018-10-06T03:18:16.951Z,11.70
2018-10-06T03:19:16.844Z,12.10
2018-10-06T03:20:16.737Z,11.60
2018-10-06T03:21:16.754Z,11.80
2018-10-06T03:22:16.554Z,12.50
2018-10-06T03:23:16.497Z,11.80
2018-10-06T03:24:16.354Z,11.30
2018-10-06T03:25:16.259Z,11.50
2018-10-06T03:26:16.164Z,11.40
2018-10-06T03:27:16.069Z,11.40
2018-10-06T03:28:15.986Z,11.00
2018-10-06T03:29:15.873Z,11.20
2018-10-06T03:30:15.780Z,11.20
2018-10-06T03:31:15.683Z,11.00
2018-10-06T03:32:15.588Z,11.20
2018-10-06T03:33:15.509Z,11.50
2018-10-06T03:34:15.397Z,11.10
2018-10-06T03:35:15.301Z,11.20
2018-10-06T03:36:15.203Z,11.10
2018-10-06T03:37:15.108Z,11.40
2018-10-06T03:38:15.030Z,11.80
2018-10-06T03:39:14.915Z,11.40
2018-10-06T03:40:14.818Z,11.20
2018-10-06T03:41:14.718Z,11.50
2018-10-06T03:42:14.628Z,11.00
2018-10-06T03:43:14.650Z,12.10
2018-10-06T03:44:14.433Z,11.50
2018-10-06T03:45:14.336Z,10.80
2018-10-06T03:46:14.241Z,11.30
2018-10-06T03:47:14.145Z,11.90
2018-10-06T03:48:14.064Z,12.00
2018-10-06T03:49:13.950Z,12.10
2018-10-06T03:50:13.960Z,12.20
2018-10-06T03:51:13.758Z,11.20
2018-10-06T03:52:13.663Z,11.60
2018-10-06T03:53:13.585Z,12.10
2018-10-06T03:54:13.570Z,12.00
2018-10-06T03:55:13.375Z,11.80
2018-10-06T03:56:13.279Z,11.90
2018-10-06T03:57:13.288Z,11.30
2018-10-06T03:58:13.103Z,11.40
2018-10-06T03:59:12.989Z,12.10
2018-10-06T04:00:12.893Z,11.40
2018-10-06T04:01:12.796Z,12.50
2018-10-06T04:02:12.703Z,12.10
2018-10-06T04:03:12.621Z,12.00
2018-10-06T04:04:12.612Z,12.30
2018-10-06T04:05:12.413Z,12.30
2018-10-06T04:06:12.315Z,11.80
2018-10-06T04:07:12.224Z,12.30
2018-10-06T04:08:12.139Z,12.30
2018-10-06T04:09:12.035Z,10.90
2018-10-06T04:10:11.932Z,12.50
2018-10-06T04:11:11.948Z,11.50
2018-10-06T04:12:11.747Z,11.50
2018-10-06T04:13:11.658Z,11.90
2018-10-06T04:14:11.544Z,11.90
2018-10-06T04:15:11.451Z,11.10
2018-10-06T04:16:11.354Z,11.40
2018-10-06T04:17:11.258Z,11.70
2018-10-06T04:18:11.285Z,11.10
2018-10-06T04:19:11.066Z,11.20
2018-10-06T04:20:10.971Z,11.90
2018-10-06T04:21:10.874Z,11.80
2018-10-06T04:22:10.797Z,11.40
2018-10-06T04:23:10.699Z,11.10
2018-10-06T04:24:10.580Z,11.40
2018-10-06T04:25:10.593Z,11.30
2018-10-06T04:26:10.390Z,11.40
2018-10-06T04:27:10.298Z,11.90
2018-10-06T04:28:10.222Z,11.20
2018-10-06T04:29:10.100Z,11.40
2018-10-06T04:30:10.009Z,10.90
2018-10-06T04:31:09.916Z,11.90
2018-10-06T04:32:09.928Z,11.60
2018-10-06T04:33:09.731Z,10.80
2018-10-06T04:34:09.624Z,11.20
2018-10-06T04:35:09.529Z,11.10
2018-10-06T04:36:09.430Z,10.60
2018-10-06T04:37:09.328Z,10.90
2018-10-06T04:38:09.358Z,10.30
2018-10-06T04:39:09.139Z,11.10
2018-10-06T04:40:09.041Z,11.50
2018-10-06T04:41:08.946Z,10.50
2018-10-06T04:42:08.853Z,11.00
2018-10-06T04:43:08.773Z,10.90
2018-10-06T04:44:08.660Z,11.40
2018-10-06T04:45:08.562Z,11.00
2018-10-06T04:46:08.573Z,10.40
2018-10-06T04:47:08.376Z,10.80
2018-10-06T04:48:08.276Z,10.70
2018-10-06T04:49:08.198Z,10.50
2018-10-06T04:50:08.084Z,11.10
2018-10-06T04:51:07.985Z,11.90
2018-10-06T04:52:07.924Z,11.50
2018-10-06T04:53:07.879Z,12.90
2018-10-06T04:54:07.699Z,11.50
2018-10-06T04:55:07.607Z,10.90
2018-10-06T04:56:07.509Z,11.50
2018-10-06T04:57:07.415Z,11.70
2018-10-06T04:58:07.320Z,12.20
2018-10-06T04:59:07.233Z,12.90
2018-10-06T05:00:07.122Z,12.60
2018-10-06T05:01:07.025Z,12.60
2018-10-06T05:02:06.928Z,13.00
2018-10-06T05:03:06.837Z,12.90
2018-10-06T05:04:06.754Z,12.30
2018-10-06T05:05:06.642Z,12.60
2018-10-06T05:06:06.546Z,12.90
2018-10-06T05:07:06.447Z,13.30
2018-10-06T05:08:06.353Z,13.00
2018-10-06T05:09:06.272Z,12.70
2018-10-06T05:10:06.161Z,13.50
2018-10-06T05:11:06.064Z,12.80
2018-10-06T05:12:05.973Z,12.30
2018-10-06T05:13:05.874Z,12.50
2018-10-06T05:14:05.795Z,13.10
2018-10-06T05:15:05.678Z,12.60
2018-10-06T05:16:05.581Z,13.50
2018-10-06T05:17:05.487Z,12.90
2018-10-06T05:18:05.393Z,12.60
2018-10-06T05:19:05.308Z,12.50
2018-10-06T05:20:05.196Z,12.70
2018-10-06T05:21:05.104Z,12.50
2018-10-06T05:22:05.007Z,13.60
2018-10-06T05:23:04.908Z,12.80
2018-10-06T05:24:04.830Z,13.20
2018-10-06T05:25:04.717Z,13.20
2018-10-06T05:26:04.620Z,12.60
2018-10-06T05:27:04.520Z,13.10
2018-10-06T05:28:04.427Z,12.90
2018-10-06T05:29:04.343Z,12.80
2018-10-06T05:30:04.233Z,13.20
2018-10-06T05:31:04.137Z,13.60
2018-10-06T05:32:04.042Z,13.10
2018-10-06T05:33:03.945Z,13.50
2018-10-06T05:34:03.954Z,13.10
2018-10-06T05:35:03.749Z,13.70
2018-10-06T05:36:03.671Z,13.70
2018-10-06T05:37:03.557Z,13.40
2018-10-06T05:38:03.464Z,13.90
2018-10-06T05:39:03.384Z,13.80
2018-10-06T05:40:03.268Z,13.90
2018-10-06T05:41:03.175Z,13.00
2018-10-06T05:42:03.076Z,13.60
2018-10-06T05:43:02.979Z,14.00
2018-10-06T05:44:02.900Z,13.80
2018-10-06T05:45:02.788Z,14.10
2018-10-06T05:46:02.687Z,14.50
2018-10-06T05:47:02.597Z,15.00
2018-10-06T05:48:02.499Z,14.20
2018-10-06T05:49:02.421Z,14.10
2018-10-06T05:50:02.304Z,13.50
2018-10-06T05:51:02.209Z,13.60
2018-10-06T05:52:02.110Z,14.20
2018-10-06T05:53:02.017Z,13.80
2018-10-06T05:54:01.939Z,14.30
2018-10-06T05:55:01.825Z,14.40
2018-10-06T05:56:01.728Z,14.30
2018-10-06T05:57:01.633Z,14.50
2018-10-06T05:58:01.536Z,14.20
2018-10-06T05:59:01.528Z,14.40
2018-10-06T06:00:01.338Z,14.60
2018-10-06T06:01:01.246Z,14.00
2018-10-06T06:02:01.150Z,14.40
2018-10-06T06:03:01.054Z,14.70
2018-10-06T06:04:00.972Z,14.20
2018-10-06T06:05:00.862Z,13.50
2018-10-06T06:06:00.762Z,13.50
2018-10-06T06:07:00.665Z,13.50
2018-10-06T06:08:00.570Z,14.00
2018-10-06T06:09:00.603Z,13.80
2018-10-06T06:10:00.440Z,14.40
2018-10-06T06:11:00.281Z,13.00
2018-10-06T06:12:00.185Z,13.40
2018-10-06T06:13:00.093Z,12.80
2018-10-06T06:14:00.025Z,13.30
2018-10-06T06:14:59.905Z,13.10
2018-10-06T06:15:59.926Z,13.20
2018-10-06T06:16:59.706Z,12.30
2018-10-06T06:17:59.610Z,12.80
2018-10-06T06:18:59.533Z,13.60
2018-10-06T06:19:59.418Z,13.20
2018-10-06T06:20:59.319Z,12.30
2018-10-06T06:21:59.227Z,12.50
2018-10-06T06:22:59.240Z,12.40
2018-10-06T06:23:59.205Z,13.10
2018-10-06T06:24:58.939Z,12.40
2018-10-06T06:25:58.845Z,12.20
2018-10-06T06:26:58.766Z,12.60
2018-10-06T06:27:58.651Z,12.90
2018-10-06T06:28:58.571Z,12.70
2018-10-06T06:29:58.560Z,13.20
2018-10-06T06:30:58.362Z,12.20
2018-10-06T06:31:58.269Z,12.80
2018-10-06T06:32:58.173Z,12.40
2018-10-06T06:33:58.094Z,12.70
2018-10-06T06:34:57.981Z,12.20
2018-10-06T06:35:57.890Z,11.80
2018-10-06T06:36:57.915Z,12.20
2018-10-06T06:37:57.701Z,12.00
2018-10-06T06:38:57.606Z,11.70
2018-10-06T06:39:57.521Z,11.90
2018-10-06T06:40:57.409Z,11.60
2018-10-06T06:41:57.320Z,11.60
2018-10-06T06:42:57.222Z,11.50
2018-10-06T06:43:57.270Z,11.20
2018-10-06T06:44:57.048Z,11.10
2018-10-06T06:45:56.934Z,11.30
2018-10-06T06:46:56.841Z,10.30
2018-10-06T06:47:56.744Z,10.40
2018-10-06T06:48:56.656Z,10.90
2018-10-06T06:49:56.691Z,10.00
2018-10-06T06:50:56.464Z,10.20
2018-10-06T06:51:56.366Z,10.30
2018-10-06T06:52:56.274Z,10.40
2018-10-06T06:53:56.181Z,10.40
2018-10-06T06:54:56.149Z,9.60
2018-10-06T06:55:55.988Z,10.10
2018-10-06T06:56:55.899Z,9.80
2018-10-06T06:57:55.806Z,9.70
2018-10-06T06:58:55.713Z,9.70
2018-10-06T06:59:55.634Z,10.20
2018-10-06T07:00:55.520Z,9.90
2018-10-06T07:01:55.429Z,12.10
2018-10-06T07:02:55.337Z,9.90
2018-10-06T07:03:55.351Z,10.40
2018-10-06T07:04:55.164Z,10.00
2018-10-06T07:05:55.056Z,9.60
2018-10-06T07:06:54.969Z,9.80
2018-10-06T07:07:54.874Z,10.10
2018-10-06T07:08:54.779Z,9.80
2018-10-06T07:09:54.704Z,10.10
2018-10-06T07:10:54.592Z,10.00
2018-10-06T07:11:54.500Z,9.90
2018-10-06T07:12:54.413Z,9.20
2018-10-06T07:13:54.317Z,9.90
2018-10-06T07:14:54.242Z,10.20
2018-10-06T07:15:54.131Z,10.20
2018-10-06T07:16:54.040Z,9.40
2018-10-06T07:17:53.952Z,9.20
2018-10-06T07:18:53.857Z,9.30
2018-10-06T07:19:53.846Z,9.70
2018-10-06T07:20:53.677Z,9.40
2018-10-06T07:21:53.587Z,9.10
2018-10-06T07:22:53.491Z,9.10
2018-10-06T07:23:53.405Z,9.20
2018-10-06T07:24:53.323Z,9.20
2018-10-06T07:25:53.221Z,9.40
2018-10-06T07:26:53.132Z,9.20
2018-10-06T07:27:53.035Z,10.00
2018-10-06T07:28:52.949Z,9.70
2018-10-06T07:29:52.875Z,9.60
2018-10-06T07:30:52.765Z,9.60
2018-10-06T07:31:52.675Z,9.60
2018-10-06T07:32:52.584Z,10.40
2018-10-06T07:33:52.491Z,10.90
2018-10-06T07:34:52.420Z,9.80
2018-10-06T07:35:52.313Z,10.00
2018-10-06T07:36:52.223Z,10.00
2018-10-06T07:37:52.135Z,10.20
2018-10-06T07:38:52.043Z,10.50
2018-10-06T07:39:51.968Z,10.50
2018-10-06T07:40:51.861Z,10.80
2018-10-06T07:41:51.772Z,10.20
2018-10-06T07:42:51.679Z,10.60
2018-10-06T07:43:51.588Z,10.70
2018-10-06T07:44:51.539Z,10.60
2018-10-06T07:45:51.411Z,15.10
2018-10-06T07:46:51.317Z,10.70
2018-10-06T07:47:51.231Z,10.80
2018-10-06T07:48:51.138Z,10.00
2018-10-06T07:49:51.063Z,10.40
2018-10-06T07:50:50.959Z,10.40
2018-10-06T07:51:50.867Z,10.40
2018-10-06T07:52:50.877Z,10.60
2018-10-06T07:53:50.684Z,10.00
2018-10-06T07:54:50.620Z,10.30
2018-10-06T07:55:50.507Z,9.80
2018-10-06T07:56:50.458Z,9.90
2018-10-06T07:57:50.328Z,10.00
2018-10-06T07:58:50.249Z,10.50
2018-10-06T07:59:50.165Z,10.30
2018-10-06T08:00:50.057Z,9.90
2018-10-06T08:01:49.969Z,10.00
2018-10-06T08:02:49.877Z,10.30
2018-10-06T08:03:49.787Z,10.10
2018-10-06T08:04:49.719Z,9.30
2018-10-06T08:05:49.611Z,10.10
2018-10-06T08:06:49.630Z,9.60
2018-10-06T08:07:49.434Z,10.20
2018-10-06T08:08:49.344Z,10.70
2018-10-06T08:09:49.273Z,10.70
2018-10-06T08:10:49.168Z,10.60
2018-10-06T08:11:49.090Z,10.10
2018-10-06T08:12:48.985Z,10.10
2018-10-06T08:13:49.003Z,9.60
2018-10-06T08:14:48.831Z,10.30
2018-10-06T08:15:48.720Z,9.90
2018-10-06T08:16:48.630Z,9.40
2018-10-06T08:17:48.543Z,11.00
2018-10-06T08:18:48.456Z,10.30
2018-10-06T08:19:48.384Z,10.80
2018-10-06T08:20:48.384Z,10.90
2018-10-06T08:21:48.199Z,10.30
2018-10-06T08:22:48.098Z,11.20
2018-10-06T08:23:48.015Z,11.10
2018-10-06T08:24:47.923Z,10.80
2018-10-06T08:25:47.852Z,10.20
2018-10-06T08:26:47.743Z,10.70
2018-10-06T08:27:47.762Z,10.00
2018-10-06T08:28:47.567Z,10.50
2018-10-06T08:29:47.482Z,10.50
2018-10-06T08:30:47.406Z,10.40
2018-10-06T08:31:47.298Z,10.70
2018-10-06T08:32:47.221Z,10.20
2018-10-06T08:33:47.124Z,11.00
2018-10-06T08:34:47.141Z,10.60
2018-10-06T08:35:46.960Z,10.50
2018-10-06T08:36:46.859Z,10.40
2018-10-06T08:37:46.765Z,10.10
2018-10-06T08:38:46.680Z,10.50
2018-10-06T08:39:46.590Z,10.00
2018-10-06T08:40:46.514Z,9.90
2018-10-06T08:41:46.411Z,10.50
2018-10-06T08:42:46.353Z,10.10
2018-10-06T08:43:46.236Z,10.20
2018-10-06T08:44:46.148Z,11.00
2018-10-06T08:45:46.074Z,9.90
2018-10-06T08:46:45.967Z,10.10
2018-10-06T08:47:45.879Z,9.80
2018-10-06T08:48:45.791Z,10.10
2018-10-06T08:49:45.772Z,9.70
2018-10-06T08:50:45.631Z,10.00
2018-10-06T08:51:45.529Z,9.40
2018-10-06T08:52:45.439Z,10.30
2018-10-06T08:53:45.351Z,9.40
2018-10-06T08:54:45.262Z,9.60
2018-10-06T08:55:45.197Z,10.10
2018-10-06T08:56:45.089Z,10.10
2018-10-06T08:57:44.998Z,9.70
2018-10-06T08:58:44.911Z,10.00
2018-10-06T08:59:44.828Z,9.70
2018-10-06T09:00:44.753Z,10.00
2018-10-06T09:01:44.649Z,10.20
2018-10-06T09:02:44.565Z,9.60
2018-10-06T09:03:44.477Z,9.90
2018-10-06T09:04:44.386Z,9.80
2018-10-06T09:05:44.320Z,9.70
2018-10-06T09:06:44.213Z,10.20
2018-10-06T09:07:44.130Z,9.90
2018-10-06T09:08:44.047Z,10.10
2018-10-06T09:09:44.259Z,9.60
2018-10-06T09:10:43.930Z,9.60
2018-10-06T09:11:43.778Z,9.20
2018-10-06T09:12:43.693Z,9.70
2018-10-06T09:13:43.608Z,9.60
2018-10-06T09:14:43.519Z,9.80
2018-10-06T09:15:43.470Z,9.90
2018-10-06T09:16:43.459Z,9.60
2018-10-06T09:17:43.314Z,9.80
2018-10-06T09:18:43.178Z,10.20
2018-10-06T09:19:43.090Z,9.20
2018-10-06T09:20:43.018Z,9.10
2018-10-06T09:21:42.920Z,9.30
2018-10-06T09:22:42.838Z,9.60
2018-10-06T09:23:42.854Z,9.20
2018-10-06T09:24:42.659Z,9.40
2018-10-06T09:25:42.589Z,9.30
2018-10-06T09:26:42.486Z,9.80
2018-10-06T09:27:42.402Z,9.60
2018-10-06T09:28:42.314Z,9.20
2018-10-06T09:29:42.232Z,9.90
2018-10-06T09:30:42.270Z,9.90
2018-10-06T09:31:42.062Z,9.90
2018-10-06T09:32:41.977Z,9.70
2018-10-06T09:33:41.894Z,9.90
2018-10-06T09:34:41.812Z,9.80
2018-10-06T09:35:41.737Z,9.30
2018-10-06T09:36:41.643Z,9.60
2018-10-06T09:37:41.662Z,9.10
2018-10-06T09:38:41.465Z,9.30
2018-10-06T09:39:41.383Z,10.40
2018-10-06T09:40:41.314Z,10.20
2018-10-06T09:41:41.212Z,10.00
2018-10-06T09:42:41.323Z,10.40
2018-10-06T09:43:41.040Z,9.90
2018-10-06T09:44:41.063Z,10.00
2018-10-06T09:45:40.888Z,9.80
2018-10-06T09:46:40.784Z,9.50
2018-10-06T09:47:40.700Z,9.50
2018-10-06T09:48:40.616Z,9.40
2018-10-06T09:49:40.535Z,9.90
2018-10-06T09:50:40.475Z,10.30
2018-10-06T09:51:40.473Z,9.80
2018-10-06T09:52:40.275Z,9.50
2018-10-06T09:53:40.271Z,9.40
2018-10-06T09:54:40.102Z,9.60
2018-10-06T09:55:40.039Z,9.50
2018-10-06T09:56:39.933Z,10.50
2018-10-06T09:57:39.848Z,10.20
2018-10-06T09:58:39.884Z,10.90
2018-10-06T09:59:39.677Z,10.20
2018-10-06T10:00:39.613Z,9.50
2018-10-06T10:01:39.509Z,10.40
2018-10-06T10:02:39.419Z,10.40
2018-10-06T10:03:39.333Z,10.70
2018-10-06T10:04:39.249Z,10.00
2018-10-06T10:05:39.197Z,11.10
2018-10-06T10:06:39.078Z,9.40
2018-10-06T10:07:38.994Z,9.60
2018-10-06T10:08:38.907Z,9.90
2018-10-06T10:09:38.835Z,9.90
2018-10-06T10:10:38.738Z,10.30
2018-10-06T10:11:38.665Z,10.70
2018-10-06T10:12:38.710Z,11.70
2018-10-06T10:13:38.479Z,10.10
2018-10-06T10:14:38.391Z,10.50
2018-10-06T10:15:38.310Z,9.70
2018-10-06T10:16:38.238Z,10.60
2018-10-06T10:17:38.284Z,10.80
2018-10-06T10:18:38.179Z,10.60
2018-10-06T10:19:37.965Z,10.70
2018-10-06T10:20:37.878Z,10.20
2018-10-06T10:21:37.805Z,10.30
2018-10-06T10:22:37.881Z,10.70
2018-10-06T10:23:37.672Z,10.60
2018-10-06T10:24:37.536Z,9.90
2018-10-06T10:25:37.449Z,9.90
2018-10-06T10:26:37.378Z,10.30
2018-10-06T10:27:37.272Z,9.80
2018-10-06T10:28:37.202Z,10.40
2018-10-06T10:29:37.100Z,9.80
2018-10-06T10:30:37.022Z,10.90
2018-10-06T10:31:36.945Z,10.40
2018-10-06T10:32:36.844Z,10.40
2018-10-06T10:33:36.758Z,10.50
2018-10-06T10:34:36.780Z,10.30
2018-10-06T10:35:36.592Z,10.00
2018-10-06T10:36:36.517Z,10.40
2018-10-06T10:37:36.417Z,10.00
2018-10-06T10:38:36.333Z,10.20
2018-10-06T10:39:36.427Z,10.30
2018-10-06T10:40:36.163Z,8.80
2018-10-06T10:41:36.094Z,9.30
2018-10-06T10:42:35.994Z,10.20
2018-10-06T10:43:35.905Z,9.00
2018-10-06T10:44:35.818Z,9.10
2018-10-06T10:45:35.736Z,8.80
2018-10-06T10:46:35.667Z,9.40
2018-10-06T10:47:35.562Z,9.10
2018-10-06T10:48:35.483Z,9.40
2018-10-06T10:49:35.410Z,9.60
2018-10-06T10:50:35.333Z,9.40
2018-10-06T10:51:35.240Z,9.90
2018-10-06T10:52:35.139Z,10.10
2018-10-06T10:53:35.158Z,9.20
2018-10-06T10:54:34.983Z,9.00
2018-10-06T10:55:34.958Z,9.20
2018-10-06T10:56:34.817Z,9.70
2018-10-06T10:57:34.784Z,9.10
2018-10-06T10:58:34.630Z,9.90
2018-10-06T10:59:34.618Z,9.10
2018-10-06T11:00:34.607Z,9.40
2018-10-06T11:01:34.394Z,9.60
2018-10-06T11:02:34.298Z,9.40
2018-10-06T11:03:34.210Z,8.70
2018-10-06T11:04:34.136Z,8.90
2018-10-06T11:05:34.039Z,9.00
2018-10-06T11:06:33.975Z,9.70
2018-10-06T11:07:33.998Z,9.00
2018-10-06T11:08:33.790Z,8.90
2018-10-06T11:09:33.708Z,9.20
2018-10-06T11:10:33.620Z,9.80
2018-10-06T11:11:33.555Z,9.70
2018-10-06T11:12:33.454Z,9.40
2018-10-06T11:13:33.366Z,9.90
2018-10-06T11:14:33.388Z,9.50
2018-10-06T11:15:33.199Z,8.80
2018-10-06T11:16:33.129Z,9.60
2018-10-06T11:17:33.032Z,9.40
2018-10-06T11:18:32.967Z,8.90
2018-10-06T11:19:32.863Z,8.80
2018-10-06T11:20:32.779Z,9.20
2018-10-06T11:21:32.816Z,8.90
2018-10-06T11:22:32.609Z,9.10
2018-10-06T11:23:32.530Z,8.80
2018-10-06T11:24:32.447Z,9.00
2018-10-06T11:25:32.354Z,9.00
2018-10-06T11:26:32.292Z,8.70
2018-10-06T11:27:32.191Z,8.60
2018-10-06T11:28:32.210Z,8.80
2018-10-06T11:29:32.022Z,9.10
2018-10-06T11:30:31.937Z,8.50
2018-10-06T11:31:31.869Z,8.50
2018-10-06T11:32:31.767Z,7.70
2018-10-06T11:33:31.686Z,8.10
2018-10-06T11:34:31.603Z,7.90
2018-10-06T11:35:31.616Z,7.70
2018-10-06T11:36:31.451Z,8.60
2018-10-06T11:37:31.447Z,8.80
2018-10-06T11:38:31.265Z,7.50
2018-10-06T11:39:31.185Z,8.00
2018-10-06T11:40:31.100Z,9.60
2018-10-06T11:41:31.027Z,9.10
2018-10-06T11:42:30.931Z,9.30
2018-10-06T11:43:30.843Z,9.00
2018-10-06T11:44:30.761Z,8.90
2018-10-06T11:45:30.678Z,8.90
2018-10-06T11:46:30.608Z,8.00
2018-10-06T11:47:30.516Z,9.20
2018-10-06T11:48:30.427Z,10.20
2018-10-06T11:49:30.342Z,9.20
2018-10-06T11:50:30.260Z,9.10
2018-10-06T11:51:30.193Z,8.90
2018-10-06T11:52:30.090Z,9.70
2018-10-06T11:53:30.006Z,9.70
2018-10-06T11:54:29.925Z,8.80
2018-10-06T11:55:29.948Z,9.40
2018-10-06T11:56:29.772Z,9.00
2018-10-06T11:57:29.667Z,9.00
2018-10-06T11:58:29.587Z,8.90
2018-10-06T11:59:29.500Z,9.10
2018-10-06T12:00:29.419Z,8.80
2018-10-06T12:01:29.331Z,8.20
2018-10-06T12:02:29.363Z,8.40
2018-10-06T12:03:29.158Z,8.30
2018-10-06T12:04:29.073Z,9.00
2018-10-06T12:05:28.987Z,8.30
2018-10-06T12:06:28.903Z,8.50
2018-10-06T12:07:28.829Z,8.80
2018-10-06T12:08:28.728Z,8.70
2018-10-06T12:09:28.762Z,9.00
2018-10-06T12:10:28.558Z,8.40
2018-10-06T12:11:28.467Z,8.90
2018-10-06T12:12:28.394Z,8.30
2018-10-06T12:13:28.304Z,9.00
2018-10-06T12:14:28.210Z,8.70
2018-10-06T12:15:28.124Z,8.50
2018-10-06T12:16:28.149Z,8.90
2018-10-06T12:17:27.967Z,8.00
2018-10-06T12:18:27.872Z,9.00
2018-10-06T12:19:27.774Z,8.50
2018-10-06T12:20:27.750Z,9.40
2018-10-06T12:21:27.602Z,8.70
2018-10-06T12:22:27.636Z,8.80
2018-10-06T12:23:27.426Z,8.10
2018-10-06T12:24:27.337Z,8.70
2018-10-06T12:25:27.248Z,9.10
2018-10-06T12:26:27.162Z,8.70
2018-10-06T12:27:27.093Z,8.70
2018-10-06T12:28:26.989Z,8.40
2018-10-06T12:29:26.902Z,9.00
2018-10-06T12:30:26.836Z,8.80
2018-10-06T12:31:26.726Z,8.50
2018-10-06T12:32:26.659Z,8.50
2018-10-06T12:33:26.552Z,8.70
2018-10-06T12:34:26.464Z,8.70
2018-10-06T12:35:26.581Z,8.70
2018-10-06T12:36:26.296Z,9.30
2018-10-06T12:37:26.220Z,9.50
2018-10-06T12:38:26.116Z,9.20
2018-10-06T12:39:26.024Z,9.10
2018-10-06T12:40:25.937Z,9.40
2018-10-06T12:41:25.847Z,8.50
2018-10-06T12:42:25.780Z,9.20
2018-10-06T12:43:25.673Z,8.50
2018-10-06T12:44:25.587Z,8.70
2018-10-06T12:45:25.497Z,8.70
2018-10-06T12:46:25.408Z,8.30
2018-10-06T12:47:25.336Z,8.30
2018-10-06T12:48:25.233Z,8.10
2018-10-06T12:49:25.144Z,8.00
2018-10-06T12:50:25.061Z,7.50
2018-10-06T12:51:24.974Z,8.30
2018-10-06T12:52:24.900Z,7.40
2018-10-06T12:53:24.794Z,7.40
2018-10-06T12:54:24.714Z,7.80
2018-10-06T12:55:24.622Z,7.50
2018-10-06T12:56:24.537Z,7.40
2018-10-06T12:57:24.467Z,7.40
2018-10-06T12:58:24.364Z,7.20
2018-10-06T12:59:24.276Z,7.30
2018-10-06T13:00:24.189Z,7.80
2018-10-06T13:01:24.108Z,7.00
2018-10-06T13:02:24.037Z,7.20
2018-10-06T13:03:23.937Z,7.10